createdAt,value
2022-08-28T00:02:25.655Z,62.43
2022-08-28T00:04:52.289Z,62.20
2022-08-28T00:07:19.358Z,62.46
2022-08-28T00:09:45.881Z,62.70
2022-08-28T00:12:12.391Z,62.37
2022-08-28T00:14:39.441Z,62.78
2022-08-28T00:17:06.119Z,62.88
2022-08-28T00:19:38.493Z,62.93
2022-08-28T00:22:06.359Z,63.25
2022-08-28T00:24:33.695Z,63.34
2022-08-28T00:27:18.721Z,63.63
2022-08-28T00:29:45.724Z,63.18
2022-08-28T00:32:12.589Z,63.46
2022-08-28T00:34:39.454Z,63.66
2022-08-28T00:37:06.248Z,63.84
2022-08-28T00:39:33.243Z,64.08
2022-08-28T00:41:59.755Z,64.27
2022-08-28T00:44:28.065Z,64.42
2022-08-28T00:46:57.758Z,64.03
2022-08-28T00:49:27.723Z,64.03
2022-08-28T00:52:15.296Z,64.69
2022-08-28T00:54:58.922Z,64.89
2022-08-28T00:57:34.050Z,65.49
2022-08-28T01:00:00.616Z,65.18
2022-08-28T01:02:27.702Z,65.18
2022-08-28T01:04:54.893Z,65.57
2022-08-28T01:07:23.090Z,65.42
2022-08-28T01:09:53.900Z,65.86
2022-08-28T01:12:28.844Z,65.95
2022-08-28T01:15:01.861Z,66.44
2022-08-28T01:17:32.928Z,66.50
2022-08-28T01:20:05.464Z,66.58
2022-08-28T01:22:37.331Z,66.73
2022-08-28T01:25:09.749Z,67.08
2022-08-28T01:27:36.523Z,67.20
2022-08-28T01:30:04.891Z,67.27
2022-08-28T01:32:36.303Z,67.62
2022-08-28T01:35:06.743Z,67.46
2022-08-28T01:37:33.242Z,67.31
2022-08-28T01:40:01.264Z,67.25
2022-08-28T01:42:28.121Z,67.92
2022-08-28T01:44:54.663Z,67.43
2022-08-28T01:47:22.160Z,67.28
2022-08-28T01:49:49.127Z,67.96
2022-08-28T01:52:15.657Z,67.82
2022-08-28T01:54:42.497Z,67.74
2022-08-28T01:57:09.061Z,67.80
2022-08-28T01:59:36.184Z,68.09
2022-08-28T02:02:03.989Z,67.78
2022-08-28T02:04:32.424Z,68.23
2022-08-28T02:06:59.500Z,67.84
2022-08-28T02:09:26.020Z,68.13
2022-08-28T02:11:53.885Z,67.89
2022-08-28T02:14:22.408Z,68.52
2022-08-28T02:16:49.767Z,68.58
2022-08-28T02:19:16.281Z,68.64
2022-08-28T02:21:42.813Z,68.69
2022-08-28T02:24:09.509Z,68.42
2022-08-28T02:26:36.023Z,68.85
2022-08-28T02:29:03.331Z,69.10
2022-08-28T02:31:30.252Z,69.02
2022-08-28T02:33:57.090Z,69.26
2022-08-28T02:36:24.107Z,69.62
2022-08-28T02:38:56.873Z,69.74
2022-08-28T02:41:24.860Z,69.60
2022-08-28T02:43:51.375Z,69.80
2022-08-28T02:46:17.977Z,69.88
2022-08-28T02:48:45.501Z,69.58
2022-08-28T02:51:13.889Z,70.18
2022-08-28T02:53:41.080Z,70.44
2022-08-28T02:56:08.842Z,70.11
2022-08-28T02:58:35.396Z,70.21
2022-08-28T03:01:06.801Z,70.32
2022-08-28T03:03:33.632Z,70.34
2022-08-28T03:06:01.757Z,70.18
2022-08-28T03:08:28.624Z,70.27
2022-08-28T03:10:55.242Z,70.55
2022-08-28T03:13:26.455Z,70.91
2022-08-28T03:15:55.763Z,70.47
2022-08-28T03:18:24.382Z,70.85
2022-08-28T03:20:52.726Z,70.64
2022-08-28T03:23:28.233Z,71.24
2022-08-28T03:26:00.554Z,71.05
2022-08-28T03:28:30.065Z,70.97
2022-08-28T03:30:57.867Z,71.33
2022-08-28T03:33:26.690Z,71.67
2022-08-28T03:35:55.130Z,71.53
2022-08-28T03:38:22.432Z,71.83
2022-08-28T03:40:52.122Z,71.33
2022-08-28T03:43:21.469Z,71.71
2022-08-28T03:45:59.749Z,71.75
2022-08-28T03:48:27.740Z,72.13
2022-08-28T03:50:54.718Z,71.85
2022-08-28T03:53:24.021Z,72.52
2022-08-28T03:55:50.515Z,72.16
2022-08-28T03:58:19.058Z,72.20
2022-08-28T04:00:46.415Z,72.26
2022-08-28T04:03:13.528Z,72.97
2022-08-28T04:05:44.243Z,72.63
2022-08-28T04:08:17.037Z,72.58
2022-08-28T04:10:45.263Z,72.57
2022-08-28T04:13:13.755Z,72.61
2022-08-28T04:15:41.260Z,72.90
2022-08-28T04:18:08.948Z,72.89
2022-08-28T04:20:35.755Z,72.93
2022-08-28T04:23:07.720Z,73.02
2022-08-28T04:25:34.437Z,72.97
2022-08-28T04:28:00.967Z,73.04
2022-08-28T04:30:27.467Z,73.54
2022-08-28T04:32:54.035Z,73.09
2022-08-28T04:35:20.748Z,73.27
2022-08-28T04:37:47.233Z,72.97
2022-08-28T04:40:15.769Z,73.26
2022-08-28T04:42:42.767Z,73.41
2022-08-28T04:45:09.635Z,73.67
2022-08-28T04:47:39.241Z,73.90
2022-08-28T04:50:07.288Z,73.75
2022-08-28T04:52:34.091Z,73.80
2022-08-28T04:55:00.685Z,73.80
2022-08-28T04:57:27.251Z,74.22
2022-08-28T04:59:53.782Z,73.99
2022-08-28T05:02:20.341Z,74.17
2022-08-28T05:04:47.259Z,74.38
2022-08-28T05:07:13.994Z,74.48
2022-08-28T05:09:40.504Z,74.80
2022-08-28T05:12:07.083Z,74.94
2022-08-28T05:14:33.679Z,74.89
2022-08-28T05:17:00.271Z,74.32
2022-08-28T05:19:27.774Z,74.86
2022-08-28T05:21:54.791Z,75.17
2022-08-28T05:24:22.364Z,75.05
2022-08-28T05:26:49.089Z,75.18
2022-08-28T05:29:16.642Z,75.39
2022-08-28T05:31:43.441Z,75.53
2022-08-28T05:34:10.615Z,75.32
2022-08-28T05:36:38.129Z,75.76
2022-08-28T05:39:07.353Z,75.72
2022-08-28T05:41:34.938Z,75.58
2022-08-28T05:44:05.171Z,75.97
2022-08-28T05:46:31.694Z,76.11
2022-08-28T05:49:00.155Z,75.85
2022-08-28T05:51:27.688Z,76.67
2022-08-28T05:53:55.304Z,76.86
2022-08-28T05:56:25.127Z,76.64
2022-08-28T05:58:51.696Z,76.97
2022-08-28T06:01:24.150Z,77.31
2022-08-28T06:04:05.099Z,77.14
2022-08-28T06:06:34.363Z,76.90
2022-08-28T06:09:05.215Z,77.00
2022-08-28T06:11:32.625Z,76.73
2022-08-28T06:14:03.600Z,77.20
2022-08-28T06:16:31.869Z,77.04
2022-08-28T06:18:58.596Z,76.60
2022-08-28T06:21:25.114Z,76.90
2022-08-28T06:23:51.811Z,77.02
2022-08-28T06:26:18.550Z,77.16
2022-08-28T06:28:45.089Z,76.93
2022-08-28T06:31:25.029Z,77.08
2022-08-28T06:33:58.343Z,76.92
2022-08-28T06:36:27.383Z,75.42
2022-08-28T06:38:55.241Z,76.58
2022-08-28T06:41:21.915Z,76.66
2022-08-28T06:43:48.437Z,76.51
2022-08-28T06:46:15.690Z,76.38
2022-08-28T06:48:42.400Z,76.50
2022-08-28T06:51:11.367Z,76.63
2022-08-28T06:53:39.992Z,76.56
2022-08-28T06:56:09.957Z,76.83
2022-08-28T06:58:41.010Z,76.92
2022-08-28T07:01:41.517Z,76.30
2022-08-28T07:04:10.823Z,76.18
2022-08-28T07:06:40.794Z,76.60
2022-08-28T07:09:11.176Z,75.30
2022-08-28T07:11:38.351Z,75.57
2022-08-28T07:14:05.661Z,76.13
2022-08-28T07:16:37.996Z,75.41
2022-08-28T07:19:09.980Z,75.31
2022-08-28T07:21:39.446Z,74.51
2022-08-28T07:24:07.441Z,74.61
2022-08-28T07:26:35.749Z,75.13
2022-08-28T07:29:10.689Z,74.06
2022-08-28T07:31:41.387Z,73.86
2022-08-28T07:34:09.405Z,73.62
2022-08-28T07:36:35.988Z,72.79
2022-08-28T07:39:05.149Z,72.54
2022-08-28T07:41:33.480Z,72.41
2022-08-28T07:44:18.383Z,72.28
2022-08-28T07:46:45.323Z,71.86
2022-08-28T07:49:15.415Z,71.17
2022-08-28T07:51:41.920Z,70.78
2022-08-28T07:54:15.575Z,70.72
2022-08-28T07:56:44.859Z,70.15
2022-08-28T07:59:11.766Z,69.98
2022-08-28T08:01:43.879Z,70.59
2022-08-28T08:04:13.223Z,69.56
2022-08-28T08:06:41.231Z,69.88
2022-08-28T08:09:13.061Z,69.00
2022-08-28T08:11:39.880Z,69.43
2022-08-28T08:14:07.314Z,68.81
2022-08-28T08:16:38.451Z,68.82
2022-08-28T08:19:05.068Z,68.42
2022-08-28T08:21:32.594Z,69.01
2022-08-28T08:23:59.515Z,68.45
2022-08-28T08:26:30.867Z,68.90
2022-08-28T08:28:58.016Z,67.75
2022-08-28T08:31:28.302Z,67.22
2022-08-28T08:33:57.446Z,66.84
2022-08-28T08:36:25.744Z,65.17
2022-08-28T08:38:59.121Z,64.40
2022-08-28T08:41:32.705Z,65.49
2022-08-28T08:44:23.379Z,65.72
2022-08-28T08:47:05.180Z,65.99
2022-08-28T08:49:35.955Z,65.62
2022-08-28T08:52:30.961Z,65.47
2022-08-28T08:55:19.139Z,64.33
2022-08-28T08:57:49.216Z,62.87
2022-08-28T09:00:16.462Z,63.28
2022-08-28T09:02:53.185Z,63.64
2022-08-28T09:05:27.006Z,63.46
2022-08-28T09:07:57.223Z,63.42
2022-08-28T09:10:32.173Z,62.95
2022-08-28T09:13:25.847Z,63.41
2022-08-28T09:15:52.489Z,62.82
2022-08-28T09:18:27.001Z,61.22
2022-08-28T09:20:56.739Z,60.54
2022-08-28T09:23:24.818Z,60.39
2022-08-28T09:25:59.787Z,59.31
2022-08-28T09:28:40.714Z,60.13
2022-08-28T09:31:28.978Z,59.94
2022-08-28T09:33:55.512Z,59.17
2022-08-28T09:36:31.500Z,58.21
2022-08-28T09:39:28.851Z,59.59
2022-08-28T09:42:25.885Z,59.46
2022-08-28T09:45:14.951Z,60.09
2022-08-28T09:47:48.924Z,57.97
2022-08-28T09:50:23.084Z,56.23
2022-08-28T09:52:51.765Z,57.38
2022-08-28T09:55:27.457Z,56.94
2022-08-28T09:57:54.792Z,57.16
2022-08-28T10:00:22.795Z,56.21
2022-08-28T10:02:58.095Z,56.16
2022-08-28T10:05:41.418Z,57.00
2022-08-28T10:08:41.280Z,56.80
2022-08-28T10:11:31.564Z,56.70
2022-08-28T10:14:11.597Z,55.92
2022-08-28T10:16:54.581Z,55.93
2022-08-28T10:19:31.695Z,55.67
2022-08-28T10:22:29.020Z,55.74
2022-08-28T10:25:06.420Z,55.63
2022-08-28T10:27:38.627Z,55.46
2022-08-28T10:30:13.611Z,54.78
2022-08-28T10:32:58.028Z,55.60
2022-08-28T10:35:36.522Z,55.51
2022-08-28T10:38:11.694Z,55.82
2022-08-28T10:41:06.100Z,56.57
2022-08-28T10:43:48.123Z,55.63
2022-08-28T10:46:27.200Z,54.40
2022-08-28T10:49:03.794Z,53.15
2022-08-28T10:51:43.108Z,52.40
2022-08-28T10:54:38.536Z,53.13
2022-08-28T10:57:53.186Z,52.61
2022-08-28T11:00:22.466Z,51.24
2022-08-28T11:02:52.847Z,50.29
2022-08-28T11:05:23.192Z,50.20
2022-08-28T11:07:54.860Z,50.00
2022-08-28T11:10:45.452Z,50.49
2022-08-28T11:13:12.946Z,49.11
2022-08-28T11:15:44.918Z,50.24
2022-08-28T11:18:35.846Z,49.63
2022-08-28T11:21:24.263Z,51.01
2022-08-28T11:24:05.176Z,48.85
2022-08-28T11:26:36.497Z,48.28
2022-08-28T11:29:04.202Z,48.49
2022-08-28T11:31:34.009Z,47.93
2022-08-28T11:34:02.534Z,46.45
2022-08-28T11:36:29.795Z,47.49
2022-08-28T11:38:56.968Z,47.20
2022-08-28T11:41:36.909Z,46.78
2022-08-28T11:44:09.055Z,47.26
2022-08-28T11:46:38.578Z,46.56
2022-08-28T11:49:34.119Z,48.13
2022-08-28T11:52:27.443Z,47.33
2022-08-28T11:55:07.031Z,47.66
2022-08-28T11:57:56.723Z,46.57
2022-08-28T12:00:52.751Z,46.85
2022-08-28T12:03:25.328Z,45.52
2022-08-28T12:05:56.323Z,45.45
2022-08-28T12:08:44.681Z,46.31
2022-08-28T12:11:40.036Z,45.87
2022-08-28T12:14:11.411Z,44.76
2022-08-28T12:16:56.308Z,47.16
2022-08-28T12:19:55.588Z,46.14
2022-08-28T12:22:42.226Z,43.00
2022-08-28T12:25:22.933Z,42.47
2022-08-28T12:27:49.676Z,41.52
2022-08-28T12:30:28.461Z,42.63
2022-08-28T12:33:20.985Z,44.40
2022-08-28T12:35:49.786Z,42.82
2022-08-28T12:38:21.824Z,43.68
2022-08-28T12:40:50.786Z,42.85
2022-08-28T12:43:35.546Z,42.80
2022-08-28T12:46:19.083Z,42.60
2022-08-28T12:48:51.388Z,41.83
2022-08-28T12:51:25.034Z,43.93
2022-08-28T12:53:55.108Z,41.53
2022-08-28T12:56:23.445Z,42.28
2022-08-28T12:58:50.839Z,41.99
2022-08-28T13:01:32.751Z,40.65
2022-08-28T13:04:02.821Z,40.08
2022-08-28T13:06:35.849Z,40.67
2022-08-28T13:09:05.883Z,41.65
2022-08-28T13:11:36.947Z,40.33
2022-08-28T13:14:04.408Z,39.17
2022-08-28T13:16:40.806Z,40.49
2022-08-28T13:19:07.949Z,40.13
2022-08-28T13:21:58.749Z,41.22
2022-08-28T13:24:30.441Z,41.18
2022-08-28T13:27:13.706Z,41.43
2022-08-28T13:30:19.932Z,42.47
2022-08-28T13:33:01.953Z,40.48
2022-08-28T13:35:34.610Z,37.23
2022-08-28T13:38:04.085Z,38.92
2022-08-28T13:40:57.520Z,39.45
2022-08-28T13:43:29.225Z,37.87
2022-08-28T13:45:55.752Z,37.99
2022-08-28T13:48:25.609Z,37.60
2022-08-28T13:51:07.584Z,37.84
2022-08-28T13:53:38.438Z,37.94
2022-08-28T13:56:05.188Z,37.51
2022-08-28T13:58:31.863Z,37.73
2022-08-28T14:00:59.110Z,37.97
2022-08-28T14:03:38.994Z,36.54
2022-08-28T14:06:16.748Z,37.49
2022-08-28T14:08:45.335Z,36.08
2022-08-28T14:11:14.010Z,36.93
2022-08-28T14:13:47.237Z,36.33
2022-08-28T14:16:23.055Z,35.46
2022-08-28T14:18:50.332Z,35.85
2022-08-28T14:21:16.897Z,37.19
2022-08-28T14:23:43.378Z,35.27
2022-08-28T14:26:09.866Z,36.97
2022-08-28T14:28:36.406Z,35.65
2022-08-28T14:31:05.599Z,35.58
2022-08-28T14:33:34.314Z,36.15
2022-08-28T14:36:03.670Z,35.42
2022-08-28T14:38:30.173Z,35.91
2022-08-28T14:40:56.865Z,35.70
2022-08-28T14:43:24.085Z,36.31
2022-08-28T14:45:50.731Z,35.34
2022-08-28T14:48:18.591Z,35.38
2022-08-28T14:50:47.101Z,36.02
2022-08-28T14:53:14.462Z,34.59
2022-08-28T14:55:49.137Z,35.13
2022-08-28T14:58:17.267Z,35.12
2022-08-28T15:00:48.342Z,34.99
2022-08-28T15:03:15.918Z,36.16
2022-08-28T15:05:42.539Z,35.11
2022-08-28T15:08:11.232Z,34.57
2022-08-28T15:10:42.548Z,35.36
2022-08-28T15:13:10.365Z,34.81
2022-08-28T15:15:39.438Z,33.78
2022-08-28T15:18:07.265Z,32.72
2022-08-28T15:20:39.561Z,33.21
2022-08-28T15:23:06.330Z,32.61
2022-08-28T15:25:32.872Z,32.09
2022-08-28T15:27:59.367Z,32.15
2022-08-28T15:30:26.122Z,32.62
2022-08-28T15:32:52.756Z,33.58
2022-08-28T15:35:19.311Z,34.20
2022-08-28T15:37:45.803Z,33.42
2022-08-28T15:40:30.948Z,33.42
2022-08-28T15:42:57.578Z,33.68
2022-08-28T15:45:26.351Z,34.28
2022-08-28T15:47:53.552Z,33.54
2022-08-28T15:50:20.580Z,33.51
2022-08-28T15:52:47.374Z,33.49
2022-08-28T15:55:13.856Z,33.75
2022-08-28T15:57:40.615Z,33.91
2022-08-28T16:00:10.351Z,34.68
2022-08-28T16:02:37.476Z,34.19
2022-08-28T16:05:04.752Z,34.22
2022-08-28T16:07:31.265Z,35.35
2022-08-28T16:09:57.835Z,34.21
2022-08-28T16:12:25.400Z,34.24
2022-08-28T16:14:51.967Z,34.76
2022-08-28T16:17:18.927Z,35.74
2022-08-28T16:19:46.504Z,35.07
2022-08-28T16:22:15.790Z,33.55
2022-08-28T16:24:43.137Z,34.89
2022-08-28T16:27:13.222Z,35.32
2022-08-28T16:29:42.076Z,33.46
2022-08-28T16:32:09.428Z,34.25
2022-08-28T16:34:38.975Z,33.44
2022-08-28T16:37:06.246Z,33.81
2022-08-28T16:39:35.243Z,33.84
2022-08-28T16:42:01.848Z,34.69
2022-08-28T16:44:28.391Z,33.47
2022-08-28T16:46:55.456Z,33.56
2022-08-28T16:49:23.459Z,33.61
2022-08-28T16:51:50.012Z,33.48
2022-08-28T16:54:18.099Z,32.23
2022-08-28T16:56:45.309Z,32.87
2022-08-28T16:59:13.159Z,32.80
2022-08-28T17:01:40.886Z,34.01
2022-08-28T17:04:09.319Z,33.80
2022-08-28T17:06:35.799Z,33.88
2022-08-28T17:09:02.321Z,34.07
2022-08-28T17:11:28.899Z,34.49
2022-08-28T17:13:55.528Z,34.62
2022-08-28T17:16:24.391Z,34.52
2022-08-28T17:18:52.596Z,35.12
2022-08-28T17:21:38.903Z,35.27
2022-08-28T17:24:06.683Z,35.71
2022-08-28T17:26:33.294Z,34.93
2022-08-28T17:28:59.789Z,35.91
2022-08-28T17:31:26.322Z,35.07
2022-08-28T17:33:52.868Z,35.22
2022-08-28T17:36:33.820Z,35.44
2022-08-28T17:39:03.696Z,34.93
2022-08-28T17:41:30.207Z,35.92
2022-08-28T17:43:56.822Z,34.79
2022-08-28T17:46:23.373Z,35.21
2022-08-28T17:48:56.027Z,35.09
2022-08-28T17:51:42.030Z,35.66
2022-08-28T17:54:18.204Z,35.66
2022-08-28T17:56:44.924Z,36.61
2022-08-28T17:59:12.204Z,35.64
2022-08-28T18:01:39.447Z,37.14
2022-08-28T18:04:06.383Z,35.44
2022-08-28T18:06:33.091Z,36.20
2022-08-28T18:09:00.334Z,36.24
2022-08-28T18:11:27.028Z,36.21
2022-08-28T18:13:53.849Z,36.84
2022-08-28T18:16:20.441Z,37.06
2022-08-28T18:18:47.397Z,37.89
2022-08-28T18:21:14.628Z,37.47
2022-08-28T18:23:41.132Z,36.61
2022-08-28T18:26:08.638Z,37.72
2022-08-28T18:28:35.897Z,37.79
2022-08-28T18:31:05.138Z,39.15
2022-08-28T18:33:32.525Z,38.70
2022-08-28T18:35:59.374Z,38.78
2022-08-28T18:38:28.443Z,38.89
2022-08-28T18:40:55.931Z,39.68
2022-08-28T18:43:22.511Z,39.62
2022-08-28T18:45:49.396Z,39.68
2022-08-28T18:48:16.523Z,40.12
2022-08-28T18:50:46.290Z,40.24
2022-08-28T18:53:14.491Z,40.51
2022-08-28T18:55:41.247Z,41.30
2022-08-28T18:58:07.847Z,40.97
2022-08-28T19:00:37.153Z,41.43
2022-08-28T19:03:04.466Z,41.46
2022-08-28T19:05:31.796Z,41.58
2022-08-28T19:08:00.186Z,41.86
2022-08-28T19:10:33.981Z,41.98
2022-08-28T19:13:01.727Z,41.58
2022-08-28T19:15:28.725Z,41.83
2022-08-28T19:17:55.266Z,42.32
2022-08-28T19:20:22.088Z,42.25
2022-08-28T19:22:48.882Z,42.54
2022-08-28T19:25:28.365Z,43.04
2022-08-28T19:28:00.999Z,43.04
2022-08-28T19:30:31.058Z,43.23
2022-08-28T19:32:57.568Z,43.30
2022-08-28T19:35:24.815Z,43.98
2022-08-28T19:37:55.104Z,44.02
2022-08-28T19:40:22.672Z,44.04
2022-08-28T19:42:49.877Z,44.31
2022-08-28T19:45:17.642Z,44.48
2022-08-28T19:47:44.176Z,44.93
2022-08-28T19:50:11.960Z,45.12
2022-08-28T19:52:38.638Z,45.13
2022-08-28T19:55:07.325Z,45.56
2022-08-28T19:57:34.499Z,45.23
2022-08-28T20:00:01.112Z,45.47
2022-08-28T20:02:28.503Z,45.92
2022-08-28T20:04:55.327Z,45.75
2022-08-28T20:07:22.275Z,46.15
2022-08-28T20:09:48.832Z,46.59
2022-08-28T20:12:15.329Z,46.26
2022-08-28T20:14:42.551Z,46.76
2022-08-28T20:17:09.236Z,46.99
2022-08-28T20:19:35.871Z,46.89
2022-08-28T20:22:03.047Z,47.36
2022-08-28T20:24:29.655Z,47.44
2022-08-28T20:26:56.355Z,47.37
2022-08-28T20:29:24.016Z,47.48
2022-08-28T20:31:50.736Z,47.61
2022-08-28T20:34:18.712Z,47.92
2022-08-28T20:36:45.691Z,48.43
2022-08-28T20:39:12.407Z,48.58
2022-08-28T20:41:40.448Z,48.52
2022-08-28T20:44:10.171Z,48.93
2022-08-28T20:46:41.272Z,48.66
2022-08-28T20:49:13.432Z,49.08
2022-08-28T20:51:53.586Z,49.00
2022-08-28T20:54:33.085Z,48.96
2022-08-28T20:57:02.389Z,49.65
2022-08-28T20:59:35.471Z,49.40
2022-08-28T21:02:11.307Z,49.62
2022-08-28T21:04:41.746Z,49.93
2022-08-28T21:07:09.027Z,49.95
2022-08-28T21:10:04.007Z,50.32
2022-08-28T21:12:22.432Z,50.50
2022-08-28T21:14:52.220Z,50.37
2022-08-28T21:17:20.844Z,50.95
2022-08-28T21:19:57.320Z,50.78
2022-08-28T21:22:23.846Z,51.23
2022-08-28T21:24:50.357Z,51.73
2022-08-28T21:27:18.657Z,51.51
2022-08-28T21:29:45.906Z,51.88
2022-08-28T21:32:13.096Z,51.67
2022-08-28T21:34:39.629Z,52.51
2022-08-28T21:37:06.425Z,52.54
2022-08-28T21:39:33.273Z,52.70
2022-08-28T21:41:59.819Z,52.53
2022-08-28T21:44:26.391Z,53.02
2022-08-28T21:46:52.927Z,53.20
2022-08-28T21:49:19.984Z,53.08
2022-08-28T21:51:46.507Z,53.77
2022-08-28T21:54:13.193Z,53.29
2022-08-28T21:56:39.694Z,53.54
2022-08-28T21:59:06.434Z,54.15
2022-08-28T22:01:33.018Z,54.19
2022-08-28T22:03:59.657Z,53.58
2022-08-28T22:06:26.465Z,54.13
2022-08-28T22:08:53.796Z,53.97
2022-08-28T22:11:24.801Z,54.31
2022-08-28T22:13:52.029Z,54.57
2022-08-28T22:16:18.887Z,54.92
2022-08-28T22:18:45.503Z,54.82
2022-08-28T22:21:36.693Z,54.83
2022-08-28T22:24:03.998Z,54.63
2022-08-28T22:26:30.625Z,54.73
2022-08-28T22:28:58.297Z,55.04
2022-08-28T22:31:25.011Z,55.25
2022-08-28T22:33:52.391Z,55.62
2022-08-28T22:36:20.606Z,55.51
2022-08-28T22:38:52.998Z,55.54
2022-08-28T22:41:20.546Z,55.67
2022-08-28T22:43:51.169Z,56.43
2022-08-28T22:46:20.496Z,56.08
2022-08-28T22:48:47.305Z,56.38
2022-08-28T22:51:18.349Z,56.47
2022-08-28T22:53:45.389Z,56.58
2022-08-28T22:56:12.964Z,57.41
2022-08-28T22:58:40.051Z,57.07
2022-08-28T23:01:13.265Z,57.90
2022-08-28T23:03:40.576Z,57.69
2022-08-28T23:06:07.374Z,57.58
2022-08-28T23:08:34.319Z,57.71
2022-08-28T23:11:01.331Z,57.76
2022-08-28T23:13:29.910Z,57.96
2022-08-28T23:15:56.460Z,58.06
2022-08-28T23:18:23.081Z,58.10
2022-08-28T23:20:50.507Z,58.08
2022-08-28T23:23:18.691Z,58.37
2022-08-28T23:25:45.508Z,58.41
2022-08-28T23:28:12.036Z,59.11
2022-08-28T23:30:41.157Z,58.67
2022-08-28T23:33:10.614Z,58.82
2022-08-28T23:35:38.409Z,59.49
2022-08-28T23:38:05.759Z,59.25
2022-08-28T23:40:33.123Z,59.11
2022-08-28T23:43:00.783Z,59.64
2022-08-28T23:45:27.421Z,59.35
2022-08-28T23:47:54.810Z,59.76
2022-08-28T23:50:23.575Z,60.02
2022-08-28T23:52:50.617Z,59.60
2022-08-28T23:55:18.598Z,59.76
2022-08-28T23:57:45.840Z,60.34
